sensor_id;sensor_type;location;lat;lon;timestamp;P1;durP1;ratioP1;P2;durP2;ratioP2
4547;SDS011;2286;51.570;7.090;2023-08-07T00:01:20;0.40;;;0.40;;
4547;SDS011;2286;51.570;7.090;2023-08-07T00:03:47;0.40;;;0.30;;
4547;SDS011;2286;51.570;7.090;2023-08-07T00:06:14;0.40;;;0.30;;
4547;SDS011;2286;51.570;7.090;2023-08-07T00:08:42;0.40;;;0.40;;
4547;SDS011;2286;51.570;7.090;2023-08-07T00:11:09;0.40;;;0.30;;
4547;SDS011;2286;51.570;7.090;2023-08-07T00:13:36;0.40;;;0.30;;
4547;SDS011;2286;51.570;7.090;2023-08-07T00:16:04;0.40;;;0.30;;
4547;SDS011;2286;51.570;7.090;2023-08-07T00:18:31;0.40;;;0.30;;
4547;SDS011;2286;51.570;7.090;2023-08-07T00:20:59;0.40;;;0.30;;
4547;SDS011;2286;51.570;7.090;2023-08-07T00:23:27;0.40;;;0.30;;
4547;SDS011;2286;51.570;7.090;2023-08-07T00:25:55;0.40;;;0.30;;
4547;SDS011;2286;51.570;7.090;2023-08-07T00:28:22;0.40;;;0.30;;
4547;SDS011;2286;51.570;7.090;2023-08-07T00:30:49;0.40;;;0.30;;
4547;SDS011;2286;51.570;7.090;2023-08-07T00:33:16;0.40;;;0.40;;
4547;SDS011;2286;51.570;7.090;2023-08-07T00:35:43;0.40;;;0.30;;
4547;SDS011;2286;51.570;7.090;2023-08-07T00:38:10;0.40;;;0.30;;
4547;SDS011;2286;51.570;7.090;2023-08-07T00:40:38;0.40;;;0.40;;
4547;SDS011;2286;51.570;7.090;2023-08-07T00:43:06;0.30;;;0.30;;
4547;SDS011;2286;51.570;7.090;2023-08-07T00:45:34;0.40;;;0.30;;
4547;SDS011;2286;51.570;7.090;2023-08-07T00:48:04;0.40;;;0.30;;
4547;SDS011;2286;51.570;7.090;2023-08-07T00:50:32;0.53;;;0.53;;
4547;SDS011;2286;51.570;7.090;2023-08-07T00:52:59;0.40;;;0.40;;
4547;SDS011;2286;51.570;7.090;2023-08-07T00:55:27;0.40;;;0.30;;
4547;SDS011;2286;51.570;7.090;2023-08-07T00:57:54;0.40;;;0.30;;
4547;SDS011;2286;51.570;7.090;2023-08-07T01:00:23;0.40;;;0.30;;
4547;SDS011;2286;51.570;7.090;2023-08-07T01:02:51;0.40;;;0.30;;
4547;SDS011;2286;51.570;7.090;2023-08-07T01:05:20;0.37;;;0.30;;
4547;SDS011;2286;51.570;7.090;2023-08-07T01:07:47;0.40;;;0.30;;
4547;SDS011;2286;51.570;7.090;2023-08-07T01:10:19;1.07;;;1.07;;
4547;SDS011;2286;51.570;7.090;2023-08-07T01:12:52;0.57;;;0.57;;
4547;SDS011;2286;51.570;7.090;2023-08-07T01:15:28;0.40;;;0.30;;
4547;SDS011;2286;51.570;7.090;2023-08-07T01:17:59;0.40;;;0.30;;
4547;SDS011;2286;51.570;7.090;2023-08-07T01:20:29;4.77;;;1.80;;
4547;SDS011;2286;51.570;7.090;2023-08-07T01:22:58;0.33;;;0.30;;
4547;SDS011;2286;51.570;7.090;2023-08-07T01:25:25;0.40;;;0.30;;
4547;SDS011;2286;51.570;7.090;2023-08-07T01:27:55;0.50;;;0.50;;
4547;SDS011;2286;51.570;7.090;2023-08-07T01:30:29;0.30;;;0.30;;
4547;SDS011;2286;51.570;7.090;2023-08-07T01:33:04;0.40;;;0.30;;
4547;SDS011;2286;51.570;7.090;2023-08-07T01:35:40;0.40;;;0.30;;
4547;SDS011;2286;51.570;7.090;2023-08-07T01:38:10;0.40;;;0.40;;
4547;SDS011;2286;51.570;7.090;2023-08-07T01:40:39;0.37;;;0.30;;
4547;SDS011;2286;51.570;7.090;2023-08-07T01:43:06;0.33;;;0.30;;
4547;SDS011;2286;51.570;7.090;2023-08-07T01:45:34;0.40;;;0.30;;
4547;SDS011;2286;51.570;7.090;2023-08-07T01:48:01;0.40;;;0.40;;
4547;SDS011;2286;51.570;7.090;2023-08-07T01:50:28;0.40;;;0.40;;
4547;SDS011;2286;51.570;7.090;2023-08-07T01:52:55;0.60;;;0.60;;
4547;SDS011;2286;51.570;7.090;2023-08-07T01:55:23;0.40;;;0.30;;
4547;SDS011;2286;51.570;7.090;2023-08-07T01:57:50;0.40;;;0.30;;
4547;SDS011;2286;51.570;7.090;2023-08-07T02:00:17;0.40;;;0.40;;
4547;SDS011;2286;51.570;7.090;2023-08-07T02:02:45;0.40;;;0.30;;
4547;SDS011;2286;51.570;7.090;2023-08-07T02:05:12;0.50;;;0.50;;
4547;SDS011;2286;51.570;7.090;2023-08-07T02:07:40;0.40;;;0.30;;
4547;SDS011;2286;51.570;7.090;2023-08-07T02:10:07;0.40;;;0.30;;
4547;SDS011;2286;51.570;7.090;2023-08-07T02:12:36;0.37;;;0.30;;
4547;SDS011;2286;51.570;7.090;2023-08-07T02:15:03;0.40;;;0.30;;
4547;SDS011;2286;51.570;7.090;2023-08-07T02:17:31;0.40;;;0.30;;
4547;SDS011;2286;51.570;7.090;2023-08-07T02:19:58;0.40;;;0.30;;
4547;SDS011;2286;51.570;7.090;2023-08-07T02:22:25;0.40;;;0.40;;
4547;SDS011;2286;51.570;7.090;2023-08-07T02:24:52;0.40;;;0.30;;
4547;SDS011;2286;51.570;7.090;2023-08-07T02:27:19;0.50;;;0.50;;
4547;SDS011;2286;51.570;7.090;2023-08-07T02:29:48;0.40;;;0.40;;
4547;SDS011;2286;51.570;7.090;2023-08-07T02:32:16;0.40;;;0.40;;
4547;SDS011;2286;51.570;7.090;2023-08-07T02:34:43;0.40;;;0.33;;
4547;SDS011;2286;51.570;7.090;2023-08-07T02:37:11;0.30;;;0.30;;
4547;SDS011;2286;51.570;7.090;2023-08-07T02:39:38;0.53;;;0.53;;
4547;SDS011;2286;51.570;7.090;2023-08-07T02:42:05;0.40;;;0.30;;
4547;SDS011;2286;51.570;7.090;2023-08-07T02:44:32;0.40;;;0.30;;
4547;SDS011;2286;51.570;7.090;2023-08-07T02:47:00;0.40;;;0.30;;
4547;SDS011;2286;51.570;7.090;2023-08-07T02:49:27;1.03;;;0.70;;
4547;SDS011;2286;51.570;7.090;2023-08-07T02:51:54;0.40;;;0.30;;
4547;SDS011;2286;51.570;7.090;2023-08-07T02:54:21;0.40;;;0.30;;
4547;SDS011;2286;51.570;7.090;2023-08-07T02:56:48;0.40;;;0.30;;
4547;SDS011;2286;51.570;7.090;2023-08-07T02:59:15;0.40;;;0.30;;
4547;SDS011;2286;51.570;7.090;2023-08-07T03:01:43;0.50;;;0.50;;
4547;SDS011;2286;51.570;7.090;2023-08-07T03:04:11;0.40;;;0.40;;
4547;SDS011;2286;51.570;7.090;2023-08-07T03:06:38;0.40;;;0.30;;
4547;SDS011;2286;51.570;7.090;2023-08-07T03:09:05;0.40;;;0.30;;
4547;SDS011;2286;51.570;7.090;2023-08-07T03:11:32;0.30;;;0.30;;
4547;SDS011;2286;51.570;7.090;2023-08-07T03:13:59;0.40;;;0.30;;
4547;SDS011;2286;51.570;7.090;2023-08-07T03:16:26;0.33;;;0.30;;
4547;SDS011;2286;51.570;7.090;2023-08-07T03:18:53;0.40;;;0.30;;
4547;SDS011;2286;51.570;7.090;2023-08-07T03:21:21;0.30;;;0.30;;
4547;SDS011;2286;51.570;7.090;2023-08-07T03:23:48;0.40;;;0.30;;
4547;SDS011;2286;51.570;7.090;2023-08-07T03:26:15;0.40;;;0.30;;
4547;SDS011;2286;51.570;7.090;2023-08-07T03:28:42;0.40;;;0.40;;
4547;SDS011;2286;51.570;7.090;2023-08-07T03:31:11;0.30;;;0.30;;
4547;SDS011;2286;51.570;7.090;2023-08-07T03:33:38;0.50;;;0.50;;
4547;SDS011;2286;51.570;7.090;2023-08-07T03:36:05;0.40;;;0.30;;
4547;SDS011;2286;51.570;7.090;2023-08-07T03:38:33;0.40;;;0.40;;
4547;SDS011;2286;51.570;7.090;2023-08-07T03:41:00;0.40;;;0.30;;
4547;SDS011;2286;51.570;7.090;2023-08-07T03:43:29;0.30;;;0.30;;
4547;SDS011;2286;51.570;7.090;2023-08-07T03:45:56;0.40;;;0.30;;
4547;SDS011;2286;51.570;7.090;2023-08-07T03:48:23;2.40;;;1.27;;
4547;SDS011;2286;51.570;7.090;2023-08-07T03:50:50;0.60;;;0.60;;
4547;SDS011;2286;51.570;7.090;2023-08-07T03:53:16;1.57;;;1.27;;
4547;SDS011;2286;51.570;7.090;2023-08-07T03:55:50;0.30;;;0.30;;
4547;SDS011;2286;51.570;7.090;2023-08-07T03:58:17;0.60;;;0.60;;
4547;SDS011;2286;51.570;7.090;2023-08-07T04:00:44;0.40;;;0.30;;
4547;SDS011;2286;51.570;7.090;2023-08-07T04:03:11;0.30;;;0.30;;
4547;SDS011;2286;51.570;7.090;2023-08-07T04:05:38;0.40;;;0.40;;
4547;SDS011;2286;51.570;7.090;2023-08-07T04:08:05;0.33;;;0.33;;
4547;SDS011;2286;51.570;7.090;2023-08-07T04:10:32;0.30;;;0.30;;
4547;SDS011;2286;51.570;7.090;2023-08-07T04:13:00;0.40;;;0.40;;
4547;SDS011;2286;51.570;7.090;2023-08-07T04:15:27;2.20;;;2.10;;
4547;SDS011;2286;51.570;7.090;2023-08-07T04:17:54;0.40;;;0.40;;
4547;SDS011;2286;51.570;7.090;2023-08-07T04:20:21;0.40;;;0.40;;
4547;SDS011;2286;51.570;7.090;2023-08-07T04:22:48;0.50;;;0.50;;
4547;SDS011;2286;51.570;7.090;2023-08-07T04:25:15;0.40;;;0.40;;
4547;SDS011;2286;51.570;7.090;2023-08-07T04:27:42;2.13;;;1.93;;
4547;SDS011;2286;51.570;7.090;2023-08-07T04:30:11;0.50;;;0.50;;
4547;SDS011;2286;51.570;7.090;2023-08-07T04:32:38;3.13;;;2.87;;
4547;SDS011;2286;51.570;7.090;2023-08-07T04:35:06;10.67;;;1.37;;
4547;SDS011;2286;51.570;7.090;2023-08-07T04:37:34;0.40;;;0.40;;
4547;SDS011;2286;51.570;7.090;2023-08-07T04:40:01;0.40;;;0.30;;
4547;SDS011;2286;51.570;7.090;2023-08-07T04:42:30;0.70;;;0.70;;
4547;SDS011;2286;51.570;7.090;2023-08-07T04:44:57;0.30;;;0.30;;
4547;SDS011;2286;51.570;7.090;2023-08-07T04:47:27;1.10;;;1.10;;
4547;SDS011;2286;51.570;7.090;2023-08-07T04:49:54;0.30;;;0.30;;
4547;SDS011;2286;51.570;7.090;2023-08-07T04:52:21;0.40;;;0.40;;
4547;SDS011;2286;51.570;7.090;2023-08-07T04:54:48;0.40;;;0.37;;
4547;SDS011;2286;51.570;7.090;2023-08-07T04:57:15;0.40;;;0.40;;
4547;SDS011;2286;51.570;7.090;2023-08-07T04:59:42;0.43;;;0.43;;
4547;SDS011;2286;51.570;7.090;2023-08-07T05:02:10;1.00;;;0.60;;
4547;SDS011;2286;51.570;7.090;2023-08-07T05:04:38;0.67;;;0.67;;
4547;SDS011;2286;51.570;7.090;2023-08-07T05:07:05;0.40;;;0.40;;
4547;SDS011;2286;51.570;7.090;2023-08-07T05:09:32;0.40;;;0.40;;
4547;SDS011;2286;51.570;7.090;2023-08-07T05:11:59;0.30;;;0.30;;
4547;SDS011;2286;51.570;7.090;2023-08-07T05:14:26;0.73;;;0.73;;
4547;SDS011;2286;51.570;7.090;2023-08-07T05:16:53;0.87;;;0.87;;
4547;SDS011;2286;51.570;7.090;2023-08-07T05:19:20;0.40;;;0.30;;
4547;SDS011;2286;51.570;7.090;2023-08-07T05:21:49;0.40;;;0.40;;
4547;SDS011;2286;51.570;7.090;2023-08-07T05:24:16;0.30;;;0.30;;
4547;SDS011;2286;51.570;7.090;2023-08-07T05:26:43;0.60;;;0.60;;
4547;SDS011;2286;51.570;7.090;2023-08-07T05:29:10;0.83;;;0.50;;
4547;SDS011;2286;51.570;7.090;2023-08-07T05:31:37;0.40;;;0.30;;
4547;SDS011;2286;51.570;7.090;2023-08-07T05:34:04;0.37;;;0.30;;
4547;SDS011;2286;51.570;7.090;2023-08-07T05:36:31;0.50;;;0.50;;
4547;SDS011;2286;51.570;7.090;2023-08-07T05:38:59;0.40;;;0.30;;
4547;SDS011;2286;51.570;7.090;2023-08-07T05:41:26;0.40;;;0.30;;
4547;SDS011;2286;51.570;7.090;2023-08-07T05:43:53;0.50;;;0.50;;
4547;SDS011;2286;51.570;7.090;2023-08-07T05:46:20;0.40;;;0.40;;
4547;SDS011;2286;51.570;7.090;2023-08-07T05:48:47;0.30;;;0.30;;
4547;SDS011;2286;51.570;7.090;2023-08-07T05:51:14;0.60;;;0.60;;
4547;SDS011;2286;51.570;7.090;2023-08-07T05:53:41;0.37;;;0.30;;
4547;SDS011;2286;51.570;7.090;2023-08-07T05:56:09;0.37;;;0.30;;
4547;SDS011;2286;51.570;7.090;2023-08-07T05:58:36;0.30;;;0.30;;
4547;SDS011;2286;51.570;7.090;2023-08-07T06:01:03;0.30;;;0.30;;
4547;SDS011;2286;51.570;7.090;2023-08-07T06:03:30;0.70;;;0.63;;
4547;SDS011;2286;51.570;7.090;2023-08-07T06:05:58;0.50;;;0.50;;
4547;SDS011;2286;51.570;7.090;2023-08-07T06:08:25;0.40;;;0.30;;
4547;SDS011;2286;51.570;7.090;2023-08-07T06:10:51;0.40;;;0.30;;
4547;SDS011;2286;51.570;7.090;2023-08-07T06:13:20;1.23;;;1.13;;
4547;SDS011;2286;51.570;7.090;2023-08-07T06:15:47;0.33;;;0.30;;
4547;SDS011;2286;51.570;7.090;2023-08-07T06:18:14;0.50;;;0.50;;
4547;SDS011;2286;51.570;7.090;2023-08-07T06:20:40;0.40;;;0.40;;
4547;SDS011;2286;51.570;7.090;2023-08-07T06:23:08;0.93;;;0.93;;
4547;SDS011;2286;51.570;7.090;2023-08-07T06:25:35;0.40;;;0.40;;
4547;SDS011;2286;51.570;7.090;2023-08-07T06:28:02;0.37;;;0.30;;
4547;SDS011;2286;51.570;7.090;2023-08-07T06:30:32;1.50;;;1.40;;
4547;SDS011;2286;51.570;7.090;2023-08-07T06:32:58;0.37;;;0.30;;
4547;SDS011;2286;51.570;7.090;2023-08-07T06:35:25;0.40;;;0.37;;
4547;SDS011;2286;51.570;7.090;2023-08-07T06:37:52;0.30;;;0.30;;
4547;SDS011;2286;51.570;7.090;2023-08-07T06:40:19;0.30;;;0.30;;
4547;SDS011;2286;51.570;7.090;2023-08-07T06:42:46;0.30;;;0.30;;
4547;SDS011;2286;51.570;7.090;2023-08-07T06:45:13;0.40;;;0.40;;
4547;SDS011;2286;51.570;7.090;2023-08-07T06:47:41;0.50;;;0.50;;
4547;SDS011;2286;51.570;7.090;2023-08-07T06:50:08;0.50;;;0.50;;
4547;SDS011;2286;51.570;7.090;2023-08-07T06:52:35;0.40;;;0.40;;
4547;SDS011;2286;51.570;7.090;2023-08-07T06:55:04;0.40;;;0.30;;
4547;SDS011;2286;51.570;7.090;2023-08-07T06:57:32;0.40;;;0.40;;
4547;SDS011;2286;51.570;7.090;2023-08-07T06:59:59;0.37;;;0.30;;
4547;SDS011;2286;51.570;7.090;2023-08-07T07:02:26;0.30;;;0.30;;
4547;SDS011;2286;51.570;7.090;2023-08-07T07:04:54;0.33;;;0.30;;
4547;SDS011;2286;51.570;7.090;2023-08-07T07:07:21;0.60;;;0.60;;
4547;SDS011;2286;51.570;7.090;2023-08-07T07:09:48;0.40;;;0.30;;
4547;SDS011;2286;51.570;7.090;2023-08-07T07:12:15;0.40;;;0.30;;
4547;SDS011;2286;51.570;7.090;2023-08-07T07:14:42;0.40;;;0.30;;
4547;SDS011;2286;51.570;7.090;2023-08-07T07:17:09;0.60;;;0.60;;
4547;SDS011;2286;51.570;7.090;2023-08-07T07:19:36;0.50;;;0.50;;
4547;SDS011;2286;51.570;7.090;2023-08-07T07:22:04;0.40;;;0.30;;
4547;SDS011;2286;51.570;7.090;2023-08-07T07:24:31;1.67;;;1.23;;
4547;SDS011;2286;51.570;7.090;2023-08-07T07:26:58;0.30;;;0.30;;
4547;SDS011;2286;51.570;7.090;2023-08-07T07:29:25;0.53;;;0.53;;
4547;SDS011;2286;51.570;7.090;2023-08-07T07:31:52;0.30;;;0.30;;
4547;SDS011;2286;51.570;7.090;2023-08-07T07:34:20;0.37;;;0.30;;
4547;SDS011;2286;51.570;7.090;2023-08-07T07:36:47;0.77;;;0.77;;
4547;SDS011;2286;51.570;7.090;2023-08-07T07:39:15;0.37;;;0.30;;
4547;SDS011;2286;51.570;7.090;2023-08-07T07:41:42;0.30;;;0.30;;
4547;SDS011;2286;51.570;7.090;2023-08-07T07:44:09;0.40;;;0.30;;
4547;SDS011;2286;51.570;7.090;2023-08-07T07:46:36;0.40;;;0.30;;
4547;SDS011;2286;51.570;7.090;2023-08-07T07:49:03;0.40;;;0.40;;
4547;SDS011;2286;51.570;7.090;2023-08-07T07:51:30;2.63;;;1.53;;
4547;SDS011;2286;51.570;7.090;2023-08-07T07:53:58;1.20;;;1.07;;
4547;SDS011;2286;51.570;7.090;2023-08-07T07:56:26;0.40;;;0.30;;
4547;SDS011;2286;51.570;7.090;2023-08-07T07:58:53;0.30;;;0.30;;
4547;SDS011;2286;51.570;7.090;2023-08-07T08:01:20;7.30;;;1.13;;
4547;SDS011;2286;51.570;7.090;2023-08-07T08:03:47;0.40;;;0.30;;
4547;SDS011;2286;51.570;7.090;2023-08-07T08:06:14;0.33;;;0.30;;
4547;SDS011;2286;51.570;7.090;2023-08-07T08:08:41;0.33;;;0.30;;
4547;SDS011;2286;51.570;7.090;2023-08-07T08:11:08;0.30;;;0.30;;
4547;SDS011;2286;51.570;7.090;2023-08-07T08:13:37;0.37;;;0.30;;
4547;SDS011;2286;51.570;7.090;2023-08-07T08:16:06;0.30;;;0.30;;
4547;SDS011;2286;51.570;7.090;2023-08-07T08:18:33;0.37;;;0.30;;
4547;SDS011;2286;51.570;7.090;2023-08-07T08:21:00;0.40;;;0.30;;
4547;SDS011;2286;51.570;7.090;2023-08-07T08:23:27;0.40;;;0.30;;
4547;SDS011;2286;51.570;7.090;2023-08-07T08:25:54;0.40;;;0.30;;
4547;SDS011;2286;51.570;7.090;2023-08-07T08:28:21;0.40;;;0.30;;
4547;SDS011;2286;51.570;7.090;2023-08-07T08:30:49;0.40;;;0.30;;
4547;SDS011;2286;51.570;7.090;2023-08-07T08:33:16;0.40;;;0.40;;
4547;SDS011;2286;51.570;7.090;2023-08-07T08:35:43;0.40;;;0.40;;
4547;SDS011;2286;51.570;7.090;2023-08-07T08:38:10;0.60;;;0.60;;
4547;SDS011;2286;51.570;7.090;2023-08-07T08:40:37;0.40;;;0.30;;
4547;SDS011;2286;51.570;7.090;2023-08-07T08:43:05;0.40;;;0.30;;
4547;SDS011;2286;51.570;7.090;2023-08-07T08:45:32;0.60;;;0.60;;
4547;SDS011;2286;51.570;7.090;2023-08-07T08:48:04;1.33;;;1.13;;
4547;SDS011;2286;51.570;7.090;2023-08-07T08:50:33;0.40;;;0.30;;
4547;SDS011;2286;51.570;7.090;2023-08-07T08:53:01;0.40;;;0.30;;
4547;SDS011;2286;51.570;7.090;2023-08-07T08:55:29;0.93;;;0.93;;
4547;SDS011;2286;51.570;7.090;2023-08-07T08:57:57;1.67;;;0.83;;
4547;SDS011;2286;51.570;7.090;2023-08-07T09:00:26;0.40;;;0.30;;
4547;SDS011;2286;51.570;7.090;2023-08-07T09:02:54;3.00;;;1.60;;
4547;SDS011;2286;51.570;7.090;2023-08-07T09:05:23;0.40;;;0.30;;
4547;SDS011;2286;51.570;7.090;2023-08-07T09:07:50;1.97;;;1.63;;
4547;SDS011;2286;51.570;7.090;2023-08-07T09:10:17;0.40;;;0.30;;
4547;SDS011;2286;51.570;7.090;2023-08-07T09:12:49;0.50;;;0.50;;
4547;SDS011;2286;51.570;7.090;2023-08-07T09:15:20;0.60;;;0.60;;
4547;SDS011;2286;51.570;7.090;2023-08-07T09:17:49;0.40;;;0.30;;
4547;SDS011;2286;51.570;7.090;2023-08-07T09:20:17;0.40;;;0.30;;
4547;SDS011;2286;51.570;7.090;2023-08-07T09:22:46;0.40;;;0.30;;
4547;SDS011;2286;51.570;7.090;2023-08-07T09:25:13;0.40;;;0.30;;
4547;SDS011;2286;51.570;7.090;2023-08-07T09:27:40;0.40;;;0.30;;
4547;SDS011;2286;51.570;7.090;2023-08-07T09:30:07;2.60;;;0.93;;
4547;SDS011;2286;51.570;7.090;2023-08-07T09:32:35;0.40;;;0.30;;
4547;SDS011;2286;51.570;7.090;2023-08-07T09:35:03;0.53;;;0.53;;
4547;SDS011;2286;51.570;7.090;2023-08-07T09:37:32;0.50;;;0.50;;
4547;SDS011;2286;51.570;7.090;2023-08-07T09:40:03;0.40;;;0.30;;
4547;SDS011;2286;51.570;7.090;2023-08-07T09:42:32;0.40;;;0.30;;
4547;SDS011;2286;51.570;7.090;2023-08-07T09:44:59;0.40;;;0.30;;
4547;SDS011;2286;51.570;7.090;2023-08-07T09:47:27;0.40;;;0.33;;
4547;SDS011;2286;51.570;7.090;2023-08-07T09:49:55;0.40;;;0.40;;
4547;SDS011;2286;51.570;7.090;2023-08-07T09:52:22;0.40;;;0.30;;
4547;SDS011;2286;51.570;7.090;2023-08-07T09:54:55;0.40;;;0.40;;
4547;SDS011;2286;51.570;7.090;2023-08-07T09:57:24;0.40;;;0.40;;
4547;SDS011;2286;51.570;7.090;2023-08-07T09:59:51;0.40;;;0.30;;
4547;SDS011;2286;51.570;7.090;2023-08-07T10:02:18;0.93;;;0.80;;
4547;SDS011;2286;51.570;7.090;2023-08-07T10:04:47;0.40;;;0.40;;
4547;SDS011;2286;51.570;7.090;2023-08-07T10:07:16;0.70;;;0.70;;
4547;SDS011;2286;51.570;7.090;2023-08-07T10:09:43;0.50;;;0.50;;
4547;SDS011;2286;51.570;7.090;2023-08-07T10:12:11;0.40;;;0.30;;
4547;SDS011;2286;51.570;7.090;2023-08-07T10:14:41;0.40;;;0.30;;
4547;SDS011;2286;51.570;7.090;2023-08-07T10:17:09;0.83;;;0.83;;
4547;SDS011;2286;51.570;7.090;2023-08-07T10:19:36;0.50;;;0.50;;
4547;SDS011;2286;51.570;7.090;2023-08-07T10:22:04;0.40;;;0.40;;
4547;SDS011;2286;51.570;7.090;2023-08-07T10:24:33;0.60;;;0.60;;
4547;SDS011;2286;51.570;7.090;2023-08-07T10:27:02;0.40;;;0.40;;
4547;SDS011;2286;51.570;7.090;2023-08-07T10:29:30;0.40;;;0.30;;
4547;SDS011;2286;51.570;7.090;2023-08-07T10:32:00;0.40;;;0.30;;
4547;SDS011;2286;51.570;7.090;2023-08-07T10:34:29;0.40;;;0.30;;
4547;SDS011;2286;51.570;7.090;2023-08-07T10:36:56;0.40;;;0.30;;
4547;SDS011;2286;51.570;7.090;2023-08-07T10:39:23;0.40;;;0.40;;
4547;SDS011;2286;51.570;7.090;2023-08-07T10:41:52;0.40;;;0.30;;
4547;SDS011;2286;51.570;7.090;2023-08-07T10:44:20;0.40;;;0.30;;
4547;SDS011;2286;51.570;7.090;2023-08-07T10:46:48;0.40;;;0.40;;
4547;SDS011;2286;51.570;7.090;2023-08-07T10:49:34;0.40;;;0.30;;
4547;SDS011;2286;51.570;7.090;2023-08-07T10:52:03;0.77;;;0.77;;
4547;SDS011;2286;51.570;7.090;2023-08-07T10:54:30;0.40;;;0.30;;
4547;SDS011;2286;51.570;7.090;2023-08-07T10:57:09;0.40;;;0.30;;
4547;SDS011;2286;51.570;7.090;2023-08-07T10:59:37;0.40;;;0.40;;
4547;SDS011;2286;51.570;7.090;2023-08-07T11:02:07;0.40;;;0.30;;
4547;SDS011;2286;51.570;7.090;2023-08-07T11:04:38;0.43;;;0.37;;
4547;SDS011;2286;51.570;7.090;2023-08-07T11:07:05;0.40;;;0.40;;
4547;SDS011;2286;51.570;7.090;2023-08-07T11:09:33;0.40;;;0.40;;
4547;SDS011;2286;51.570;7.090;2023-08-07T11:12:01;5.63;;;2.67;;
4547;SDS011;2286;51.570;7.090;2023-08-07T11:14:28;7.33;;;2.27;;
4547;SDS011;2286;51.570;7.090;2023-08-07T11:16:54;7.23;;;2.87;;
4547;SDS011;2286;51.570;7.090;2023-08-07T11:19:22;4.73;;;2.40;;
4547;SDS011;2286;51.570;7.090;2023-08-07T11:21:50;6.07;;;2.50;;
4547;SDS011;2286;51.570;7.090;2023-08-07T11:24:19;8.77;;;2.90;;
4547;SDS011;2286;51.570;7.090;2023-08-07T11:26:47;6.87;;;2.50;;
4547;SDS011;2286;51.570;7.090;2023-08-07T11:29:15;5.63;;;2.57;;
4547;SDS011;2286;51.570;7.090;2023-08-07T11:31:43;5.13;;;2.27;;
4547;SDS011;2286;51.570;7.090;2023-08-07T11:34:11;5.97;;;3.20;;
4547;SDS011;2286;51.570;7.090;2023-08-07T11:36:40;3.67;;;1.97;;
4547;SDS011;2286;51.570;7.090;2023-08-07T11:39:09;5.33;;;2.33;;
4547;SDS011;2286;51.570;7.090;2023-08-07T11:41:36;3.97;;;2.20;;
4547;SDS011;2286;51.570;7.090;2023-08-07T11:44:03;4.07;;;2.37;;
4547;SDS011;2286;51.570;7.090;2023-08-07T11:46:30;5.60;;;2.90;;
4547;SDS011;2286;51.570;7.090;2023-08-07T11:48:57;6.13;;;2.03;;
4547;SDS011;2286;51.570;7.090;2023-08-07T11:51:24;6.10;;;2.13;;
4547;SDS011;2286;51.570;7.090;2023-08-07T11:53:51;5.70;;;2.40;;
4547;SDS011;2286;51.570;7.090;2023-08-07T11:56:23;5.90;;;2.17;;
4547;SDS011;2286;51.570;7.090;2023-08-07T11:58:50;5.70;;;2.30;;
4547;SDS011;2286;51.570;7.090;2023-08-07T12:01:19;4.80;;;2.37;;
4547;SDS011;2286;51.570;7.090;2023-08-07T12:03:51;8.10;;;2.63;;
4547;SDS011;2286;51.570;7.090;2023-08-07T12:06:19;5.73;;;2.37;;
4547;SDS011;2286;51.570;7.090;2023-08-07T12:08:48;3.50;;;2.07;;
4547;SDS011;2286;51.570;7.090;2023-08-07T12:11:16;6.73;;;2.90;;
4547;SDS011;2286;51.570;7.090;2023-08-07T12:13:45;4.90;;;2.70;;
4547;SDS011;2286;51.570;7.090;2023-08-07T12:16:12;2.53;;;2.10;;
4547;SDS011;2286;51.570;7.090;2023-08-07T12:18:43;4.43;;;2.40;;
4547;SDS011;2286;51.570;7.090;2023-08-07T12:21:10;6.50;;;2.10;;
4547;SDS011;2286;51.570;7.090;2023-08-07T12:23:39;5.50;;;2.13;;
4547;SDS011;2286;51.570;7.090;2023-08-07T12:26:07;3.23;;;2.10;;
4547;SDS011;2286;51.570;7.090;2023-08-07T12:28:33;8.37;;;1.77;;
4547;SDS011;2286;51.570;7.090;2023-08-07T12:31:02;6.93;;;3.27;;
4547;SDS011;2286;51.570;7.090;2023-08-07T12:33:29;3.50;;;2.13;;
4547;SDS011;2286;51.570;7.090;2023-08-07T12:35:57;5.67;;;2.43;;
4547;SDS011;2286;51.570;7.090;2023-08-07T12:38:24;4.17;;;2.00;;
4547;SDS011;2286;51.570;7.090;2023-08-07T12:40:51;5.80;;;2.90;;
4547;SDS011;2286;51.570;7.090;2023-08-07T12:43:18;3.97;;;2.53;;
4547;SDS011;2286;51.570;7.090;2023-08-07T12:45:46;4.50;;;1.90;;
4547;SDS011;2286;51.570;7.090;2023-08-07T12:48:14;7.87;;;2.63;;
4547;SDS011;2286;51.570;7.090;2023-08-07T12:50:41;7.63;;;2.27;;
4547;SDS011;2286;51.570;7.090;2023-08-07T12:53:08;4.50;;;1.80;;
4547;SDS011;2286;51.570;7.090;2023-08-07T12:55:35;6.13;;;1.80;;
4547;SDS011;2286;51.570;7.090;2023-08-07T12:58:02;2.57;;;1.90;;
4547;SDS011;2286;51.570;7.090;2023-08-07T13:00:29;3.30;;;2.40;;
4547;SDS011;2286;51.570;7.090;2023-08-07T13:02:56;3.10;;;1.90;;
4547;SDS011;2286;51.570;7.090;2023-08-07T13:05:25;3.17;;;1.70;;
4547;SDS011;2286;51.570;7.090;2023-08-07T13:07:52;3.77;;;1.83;;
4547;SDS011;2286;51.570;7.090;2023-08-07T13:10:21;4.30;;;1.90;;
4547;SDS011;2286;51.570;7.090;2023-08-07T13:12:48;4.20;;;1.80;;
4547;SDS011;2286;51.570;7.090;2023-08-07T13:15:15;4.93;;;1.90;;
4547;SDS011;2286;51.570;7.090;2023-08-07T13:17:43;4.10;;;2.10;;
4547;SDS011;2286;51.570;7.090;2023-08-07T13:20:11;3.27;;;2.33;;
4547;SDS011;2286;51.570;7.090;2023-08-07T13:22:41;5.13;;;2.07;;
4547;SDS011;2286;51.570;7.090;2023-08-07T13:25:09;2.77;;;1.33;;
4547;SDS011;2286;51.570;7.090;2023-08-07T13:27:37;7.30;;;2.20;;
4547;SDS011;2286;51.570;7.090;2023-08-07T13:30:05;2.63;;;1.57;;
4547;SDS011;2286;51.570;7.090;2023-08-07T13:32:33;4.80;;;1.97;;
4547;SDS011;2286;51.570;7.090;2023-08-07T13:35:00;4.43;;;1.80;;
4547;SDS011;2286;51.570;7.090;2023-08-07T13:37:28;4.37;;;2.40;;
4547;SDS011;2286;51.570;7.090;2023-08-07T13:39:57;3.60;;;1.93;;
4547;SDS011;2286;51.570;7.090;2023-08-07T13:42:24;7.57;;;2.60;;
4547;SDS011;2286;51.570;7.090;2023-08-07T13:44:52;7.07;;;2.17;;
4547;SDS011;2286;51.570;7.090;2023-08-07T13:47:20;7.17;;;1.67;;
4547;SDS011;2286;51.570;7.090;2023-08-07T13:49:47;5.27;;;2.30;;
4547;SDS011;2286;51.570;7.090;2023-08-07T13:52:14;4.20;;;2.03;;
4547;SDS011;2286;51.570;7.090;2023-08-07T13:54:41;4.40;;;1.90;;
4547;SDS011;2286;51.570;7.090;2023-08-07T13:57:09;5.90;;;2.10;;
4547;SDS011;2286;51.570;7.090;2023-08-07T13:59:36;3.60;;;2.00;;
4547;SDS011;2286;51.570;7.090;2023-08-07T14:02:03;6.03;;;1.90;;
4547;SDS011;2286;51.570;7.090;2023-08-07T14:04:31;11.80;;;2.10;;
4547;SDS011;2286;51.570;7.090;2023-08-07T14:06:58;3.13;;;1.83;;
4547;SDS011;2286;51.570;7.090;2023-08-07T14:09:25;3.93;;;1.50;;
4547;SDS011;2286;51.570;7.090;2023-08-07T14:11:52;2.67;;;1.80;;
4547;SDS011;2286;51.570;7.090;2023-08-07T14:14:22;3.60;;;1.83;;
4547;SDS011;2286;51.570;7.090;2023-08-07T14:16:49;3.23;;;1.57;;
4547;SDS011;2286;51.570;7.090;2023-08-07T14:19:16;6.20;;;2.13;;
4547;SDS011;2286;51.570;7.090;2023-08-07T14:21:43;6.80;;;1.73;;
4547;SDS011;2286;51.570;7.090;2023-08-07T14:24:10;2.13;;;1.40;;
4547;SDS011;2286;51.570;7.090;2023-08-07T14:26:37;4.30;;;2.53;;
4547;SDS011;2286;51.570;7.090;2023-08-07T14:29:04;2.30;;;1.73;;
4547;SDS011;2286;51.570;7.090;2023-08-07T14:31:32;6.70;;;1.70;;
4547;SDS011;2286;51.570;7.090;2023-08-07T14:33:59;5.50;;;2.00;;
4547;SDS011;2286;51.570;7.090;2023-08-07T14:36:26;5.47;;;2.50;;
4547;SDS011;2286;51.570;7.090;2023-08-07T14:38:53;4.27;;;2.00;;
4547;SDS011;2286;51.570;7.090;2023-08-07T14:41:20;3.80;;;1.90;;
4547;SDS011;2286;51.570;7.090;2023-08-07T14:43:47;4.80;;;1.83;;
4547;SDS011;2286;51.570;7.090;2023-08-07T14:46:15;4.73;;;1.93;;
4547;SDS011;2286;51.570;7.090;2023-08-07T14:48:44;4.37;;;1.60;;
4547;SDS011;2286;51.570;7.090;2023-08-07T14:51:11;3.00;;;1.80;;
4547;SDS011;2286;51.570;7.090;2023-08-07T14:53:39;4.93;;;1.80;;
4547;SDS011;2286;51.570;7.090;2023-08-07T14:56:06;4.97;;;1.90;;
4547;SDS011;2286;51.570;7.090;2023-08-07T14:58:34;4.43;;;1.50;;
4547;SDS011;2286;51.570;7.090;2023-08-07T15:01:01;6.30;;;2.03;;
4547;SDS011;2286;51.570;7.090;2023-08-07T15:03:28;6.93;;;1.87;;
4547;SDS011;2286;51.570;7.090;2023-08-07T15:05:56;4.07;;;1.40;;
4547;SDS011;2286;51.570;7.090;2023-08-07T15:08:23;3.23;;;1.50;;
4547;SDS011;2286;51.570;7.090;2023-08-07T15:10:51;4.80;;;1.63;;
4547;SDS011;2286;51.570;7.090;2023-08-07T15:13:18;2.80;;;1.73;;
4547;SDS011;2286;51.570;7.090;2023-08-07T15:15:45;3.83;;;1.60;;
4547;SDS011;2286;51.570;7.090;2023-08-07T15:18:12;2.73;;;1.70;;